sensor_id;sensor_type;location;lat;lon;timestamp;temperature;humidity
18260;DHT22;9256;52.236;5.712;2023-04-24T00:02:08;9.60;99.90
18260;DHT22;9256;52.236;5.712;2023-04-24T00:04:36;9.60;99.90
18260;DHT22;9256;52.236;5.712;2023-04-24T00:07:05;9.60;99.90
18260;DHT22;9256;52.236;5.712;2023-04-24T00:09:32;9.60;99.90
18260;DHT22;9256;52.236;5.712;2023-04-24T00:11:59;9.50;99.90
18260;DHT22;9256;52.236;5.712;2023-04-24T00:14:28;9.50;99.90
18260;DHT22;9256;52.236;5.712;2023-04-24T00:16:56;9.50;99.90
18260;DHT22;9256;52.236;5.712;2023-04-24T00:19:23;9.50;99.90
18260;DHT22;9256;52.236;5.712;2023-04-24T00:21:50;9.50;99.90
18260;DHT22;9256;52.236;5.712;2023-04-24T00:24:17;9.40;99.90
18260;DHT22;9256;52.236;5.712;2023-04-24T00:26:44;9.30;99.90
18260;DHT22;9256;52.236;5.712;2023-04-24T00:29:11;9.30;99.90
18260;DHT22;9256;52.236;5.712;2023-04-24T00:31:39;9.30;99.90
18260;DHT22;9256;52.236;5.712;2023-04-24T00:34:07;9.30;99.90
18260;DHT22;9256;52.236;5.712;2023-04-24T00:36:36;9.40;99.90
18260;DHT22;9256;52.236;5.712;2023-04-24T00:39:03;9.40;99.90
18260;DHT22;9256;52.236;5.712;2023-04-24T00:41:30;9.40;99.90
18260;DHT22;9256;52.236;5.712;2023-04-24T00:43:57;9.40;99.90
18260;DHT22;9256;52.236;5.712;2023-04-24T00:46:24;9.40;99.90
18260;DHT22;9256;52.236;5.712;2023-04-24T00:48:51;9.40;99.90
18260;DHT22;9256;52.236;5.712;2023-04-24T00:51:20;9.40;99.90
18260;DHT22;9256;52.236;5.712;2023-04-24T00:53:47;9.40;99.90
18260;DHT22;9256;52.236;5.712;2023-04-24T00:56:14;9.40;99.90
18260;DHT22;9256;52.236;5.712;2023-04-24T00:58:41;9.30;99.90
18260;DHT22;9256;52.236;5.712;2023-04-24T01:01:09;9.30;99.90
18260;DHT22;9256;52.236;5.712;2023-04-24T01:03:37;9.30;99.90
18260;DHT22;9256;52.236;5.712;2023-04-24T01:06:05;9.20;99.90
18260;DHT22;9256;52.236;5.712;2023-04-24T01:08:34;9.30;99.90
18260;DHT22;9256;52.236;5.712;2023-04-24T01:11:03;9.20;99.90
18260;DHT22;9256;52.236;5.712;2023-04-24T01:13:31;9.30;99.90
18260;DHT22;9256;52.236;5.712;2023-04-24T01:15:59;9.30;99.90
18260;DHT22;9256;52.236;5.712;2023-04-24T01:18:26;9.20;99.90
18260;DHT22;9256;52.236;5.712;2023-04-24T01:20:57;9.30;99.90
18260;DHT22;9256;52.236;5.712;2023-04-24T01:23:26;9.30;99.90
18260;DHT22;9256;52.236;5.712;2023-04-24T01:25:53;9.30;99.90
18260;DHT22;9256;52.236;5.712;2023-04-24T01:28:20;9.30;99.90
18260;DHT22;9256;52.236;5.712;2023-04-24T01:30:47;9.30;99.90
18260;DHT22;9256;52.236;5.712;2023-04-24T01:33:14;9.30;99.90
18260;DHT22;9256;52.236;5.712;2023-04-24T01:35:42;9.20;99.90
18260;DHT22;9256;52.236;5.712;2023-04-24T01:38:09;9.20;99.90
18260;DHT22;9256;52.236;5.712;2023-04-24T01:40:38;9.20;99.90
18260;DHT22;9256;52.236;5.712;2023-04-24T01:43:05;9.20;99.90
18260;DHT22;9256;52.236;5.712;2023-04-24T01:45:32;9.20;99.90
18260;DHT22;9256;52.236;5.712;2023-04-24T01:47:59;9.30;99.90
18260;DHT22;9256;52.236;5.712;2023-04-24T01:50:26;9.20;99.90
18260;DHT22;9256;52.236;5.712;2023-04-24T01:52:53;9.20;99.90
18260;DHT22;9256;52.236;5.712;2023-04-24T01:55:21;9.20;99.90
18260;DHT22;9256;52.236;5.712;2023-04-24T01:57:49;9.20;99.90
18260;DHT22;9256;52.236;5.712;2023-04-24T02:00:16;9.30;99.90
18260;DHT22;9256;52.236;5.712;2023-04-24T02:02:43;9.20;99.90
18260;DHT22;9256;52.236;5.712;2023-04-24T02:05:10;9.20;99.90
18260;DHT22;9256;52.236;5.712;2023-04-24T02:07:37;9.30;99.90
18260;DHT22;9256;52.236;5.712;2023-04-24T02:10:06;9.30;99.90
18260;DHT22;9256;52.236;5.712;2023-04-24T02:12:33;9.20;99.90
18260;DHT22;9256;52.236;5.712;2023-04-24T02:15:01;9.20;99.90
18260;DHT22;9256;52.236;5.712;2023-04-24T02:17:28;9.20;99.90
18260;DHT22;9256;52.236;5.712;2023-04-24T02:19:56;9.20;99.90
18260;DHT22;9256;52.236;5.712;2023-04-24T02:22:23;9.20;99.90
18260;DHT22;9256;52.236;5.712;2023-04-24T02:24:50;9.20;99.90
18260;DHT22;9256;52.236;5.712;2023-04-24T02:27:17;9.20;99.90
18260;DHT22;9256;52.236;5.712;2023-04-24T02:29:43;9.20;99.90
18260;DHT22;9256;52.236;5.712;2023-04-24T02:32:12;9.20;99.90
18260;DHT22;9256;52.236;5.712;2023-04-24T02:34:41;9.20;99.90
18260;DHT22;9256;52.236;5.712;2023-04-24T02:37:07;9.20;99.90
18260;DHT22;9256;52.236;5.712;2023-04-24T02:39:35;9.20;99.90
18260;DHT22;9256;52.236;5.712;2023-04-24T02:42:02;9.20;99.90
18260;DHT22;9256;52.236;5.712;2023-04-24T02:44:29;9.20;99.90
18260;DHT22;9256;52.236;5.712;2023-04-24T02:46:55;9.20;99.90
18260;DHT22;9256;52.236;5.712;2023-04-24T02:49:24;9.20;99.90
18260;DHT22;9256;52.236;5.712;2023-04-24T02:51:51;9.30;99.90
18260;DHT22;9256;52.236;5.712;2023-04-24T02:54:18;9.30;99.90
18260;DHT22;9256;52.236;5.712;2023-04-24T02:56:45;9.20;99.90
18260;DHT22;9256;52.236;5.712;2023-04-24T02:59:12;9.20;99.90
18260;DHT22;9256;52.236;5.712;2023-04-24T03:01:39;9.20;99.90
18260;DHT22;9256;52.236;5.712;2023-04-24T03:04:05;9.30;99.90
18260;DHT22;9256;52.236;5.712;2023-04-24T03:06:34;9.30;99.90
18260;DHT22;9256;52.236;5.712;2023-04-24T03:09:01;9.30;99.90
18260;DHT22;9256;52.236;5.712;2023-04-24T03:11:29;9.20;99.90
18260;DHT22;9256;52.236;5.712;2023-04-24T03:13:55;9.20;99.90
18260;DHT22;9256;52.236;5.712;2023-04-24T03:16:22;9.20;99.90
18260;DHT22;9256;52.236;5.712;2023-04-24T03:18:49;9.20;99.90
18260;DHT22;9256;52.236;5.712;2023-04-24T03:21:16;9.20;99.90
18260;DHT22;9256;52.236;5.712;2023-04-24T03:23:44;9.30;99.90
18260;DHT22;9256;52.236;5.712;2023-04-24T03:26:11;9.20;99.90
18260;DHT22;9256;52.236;5.712;2023-04-24T03:28:38;9.20;99.90
18260;DHT22;9256;52.236;5.712;2023-04-24T03:31:05;9.20;99.90
18260;DHT22;9256;52.236;5.712;2023-04-24T03:33:32;9.20;99.90
18260;DHT22;9256;52.236;5.712;2023-04-24T03:35:59;9.20;99.90
18260;DHT22;9256;52.236;5.712;2023-04-24T03:38:26;9.20;99.90
18260;DHT22;9256;52.236;5.712;2023-04-24T03:40:54;9.20;99.90
18260;DHT22;9256;52.236;5.712;2023-04-24T03:43:21;9.20;99.90
18260;DHT22;9256;52.236;5.712;2023-04-24T03:45:48;9.20;99.90
18260;DHT22;9256;52.236;5.712;2023-04-24T03:48:15;9.20;99.90
18260;DHT22;9256;52.236;5.712;2023-04-24T03:50:42;9.20;99.90
18260;DHT22;9256;52.236;5.712;2023-04-24T03:53:09;9.20;99.90
18260;DHT22;9256;52.236;5.712;2023-04-24T03:55:35;9.20;99.90
18260;DHT22;9256;52.236;5.712;2023-04-24T03:58:04;9.20;99.90
18260;DHT22;9256;52.236;5.712;2023-04-24T04:00:31;9.20;99.90
18260;DHT22;9256;52.236;5.712;2023-04-24T04:02:58;9.20;99.90
18260;DHT22;9256;52.236;5.712;2023-04-24T04:05:25;9.20;99.90
18260;DHT22;9256;52.236;5.712;2023-04-24T04:07:52;9.20;99.90
18260;DHT22;9256;52.236;5.712;2023-04-24T04:10:19;9.20;99.90
18260;DHT22;9256;52.236;5.712;2023-04-24T04:12:46;9.30;99.90
18260;DHT22;9256;52.236;5.712;2023-04-24T04:15:14;9.20;99.90
18260;DHT22;9256;52.236;5.712;2023-04-24T04:17:41;9.20;99.90
18260;DHT22;9256;52.236;5.712;2023-04-24T04:20:09;9.20;99.90
18260;DHT22;9256;52.236;5.712;2023-04-24T04:22:36;9.20;99.90
18260;DHT22;9256;52.236;5.712;2023-04-24T04:25:03;9.10;99.90
18260;DHT22;9256;52.236;5.712;2023-04-24T04:27:30;9.20;99.90
18260;DHT22;9256;52.236;5.712;2023-04-24T04:29:57;9.20;99.90
18260;DHT22;9256;52.236;5.712;2023-04-24T04:32:28;9.10;99.90
18260;DHT22;9256;52.236;5.712;2023-04-24T04:34:55;9.00;99.90
18260;DHT22;9256;52.236;5.712;2023-04-24T04:37:21;9.10;99.90
18260;DHT22;9256;52.236;5.712;2023-04-24T04:39:48;9.10;99.90
18260;DHT22;9256;52.236;5.712;2023-04-24T04:42:15;9.00;99.90
18260;DHT22;9256;52.236;5.712;2023-04-24T04:44:42;9.00;99.90
18260;DHT22;9256;52.236;5.712;2023-04-24T04:47:10;9.10;99.90
18260;DHT22;9256;52.236;5.712;2023-04-24T04:49:39;9.00;99.90
18260;DHT22;9256;52.236;5.712;2023-04-24T04:52:06;9.00;99.90
18260;DHT22;9256;52.236;5.712;2023-04-24T04:54:33;9.00;99.90
18260;DHT22;9256;52.236;5.712;2023-04-24T04:57:00;9.10;99.90
18260;DHT22;9256;52.236;5.712;2023-04-24T04:59:27;9.00;99.90
18260;DHT22;9256;52.236;5.712;2023-04-24T05:01:54;9.00;99.90
18260;DHT22;9256;52.236;5.712;2023-04-24T05:04:21;9.00;99.90
18260;DHT22;9256;52.236;5.712;2023-04-24T05:06:49;9.00;99.90
18260;DHT22;9256;52.236;5.712;2023-04-24T05:09:17;9.10;99.90
18260;DHT22;9256;52.236;5.712;2023-04-24T05:11:44;9.20;99.90
18260;DHT22;9256;52.236;5.712;2023-04-24T05:14:11;9.10;99.90
18260;DHT22;9256;52.236;5.712;2023-04-24T05:16:39;9.10;99.90
18260;DHT22;9256;52.236;5.712;2023-04-24T05:19:06;9.10;99.90
18260;DHT22;9256;52.236;5.712;2023-04-24T05:21:33;9.10;99.90
18260;DHT22;9256;52.236;5.712;2023-04-24T05:24:01;9.10;99.90
18260;DHT22;9256;52.236;5.712;2023-04-24T05:26:28;9.10;99.90
18260;DHT22;9256;52.236;5.712;2023-04-24T05:28:55;9.10;99.90
18260;DHT22;9256;52.236;5.712;2023-04-24T05:31:25;9.20;99.90
18260;DHT22;9256;52.236;5.712;2023-04-24T05:33:52;9.10;99.90
18260;DHT22;9256;52.236;5.712;2023-04-24T05:36:19;9.10;99.90
18260;DHT22;9256;52.236;5.712;2023-04-24T05:38:46;9.20;99.90
18260;DHT22;9256;52.236;5.712;2023-04-24T05:41:14;9.20;99.90
18260;DHT22;9256;52.236;5.712;2023-04-24T05:43:41;9.20;99.90
18260;DHT22;9256;52.236;5.712;2023-04-24T05:46:08;9.30;99.90
18260;DHT22;9256;52.236;5.712;2023-04-24T05:48:35;9.20;99.90
18260;DHT22;9256;52.236;5.712;2023-04-24T05:51:02;9.20;99.90
18260;DHT22;9256;52.236;5.712;2023-04-24T05:53:29;9.20;99.90
18260;DHT22;9256;52.236;5.712;2023-04-24T05:55:56;9.20;99.90
18260;DHT22;9256;52.236;5.712;2023-04-24T05:58:24;9.30;99.90
18260;DHT22;9256;52.236;5.712;2023-04-24T06:00:51;9.30;99.90
18260;DHT22;9256;52.236;5.712;2023-04-24T06:03:18;9.40;99.90
18260;DHT22;9256;52.236;5.712;2023-04-24T06:05:45;9.40;99.90
18260;DHT22;9256;52.236;5.712;2023-04-24T06:08:12;9.30;99.90
18260;DHT22;9256;52.236;5.712;2023-04-24T06:10:39;9.30;99.90
18260;DHT22;9256;52.236;5.712;2023-04-24T06:13:06;9.30;99.90
18260;DHT22;9256;52.236;5.712;2023-04-24T06:15:35;9.30;99.90
18260;DHT22;9256;52.236;5.712;2023-04-24T06:18:02;9.20;99.90
18260;DHT22;9256;52.236;5.712;2023-04-24T06:20:29;9.10;99.90
18260;DHT22;9256;52.236;5.712;2023-04-24T06:22:56;9.10;99.90
18260;DHT22;9256;52.236;5.712;2023-04-24T06:25:24;9.00;99.90
18260;DHT22;9256;52.236;5.712;2023-04-24T06:27:51;9.00;99.90
18260;DHT22;9256;52.236;5.712;2023-04-24T06:30:18;9.00;99.90
18260;DHT22;9256;52.236;5.712;2023-04-24T06:32:46;9.00;99.90
18260;DHT22;9256;52.236;5.712;2023-04-24T06:35:13;9.00;99.90
18260;DHT22;9256;52.236;5.712;2023-04-24T06:37:42;8.90;99.90
18260;DHT22;9256;52.236;5.712;2023-04-24T06:40:09;9.00;99.90
18260;DHT22;9256;52.236;5.712;2023-04-24T06:42:36;9.00;99.90
18260;DHT22;9256;52.236;5.712;2023-04-24T06:45:04;9.00;99.90
18260;DHT22;9256;52.236;5.712;2023-04-24T06:47:31;9.00;99.90
18260;DHT22;9256;52.236;5.712;2023-04-24T06:50:00;9.00;99.90
18260;DHT22;9256;52.236;5.712;2023-04-24T06:52:27;9.00;99.90
18260;DHT22;9256;52.236;5.712;2023-04-24T06:55:00;9.00;99.90
18260;DHT22;9256;52.236;5.712;2023-04-24T06:57:27;8.90;99.90
18260;DHT22;9256;52.236;5.712;2023-04-24T06:59:54;8.90;99.90
18260;DHT22;9256;52.236;5.712;2023-04-24T07:02:21;9.00;99.90
18260;DHT22;9256;52.236;5.712;2023-04-24T07:04:50;9.00;99.90
18260;DHT22;9256;52.236;5.712;2023-04-24T07:07:19;8.80;99.90
18260;DHT22;9256;52.236;5.712;2023-04-24T07:09:47;8.80;99.90
18260;DHT22;9256;52.236;5.712;2023-04-24T07:12:14;8.80;99.90
18260;DHT22;9256;52.236;5.712;2023-04-24T07:14:42;8.80;99.90
18260;DHT22;9256;52.236;5.712;2023-04-24T07:17:09;8.80;99.90
18260;DHT22;9256;52.236;5.712;2023-04-24T07:19:38;8.70;99.90
18260;DHT22;9256;52.236;5.712;2023-04-24T07:22:05;8.70;99.90
18260;DHT22;9256;52.236;5.712;2023-04-24T07:24:33;8.70;99.90
18260;DHT22;9256;52.236;5.712;2023-04-24T07:27:00;8.70;99.90
18260;DHT22;9256;52.236;5.712;2023-04-24T07:29:27;8.60;99.90
18260;DHT22;9256;52.236;5.712;2023-04-24T07:31:54;8.70;99.90
18260;DHT22;9256;52.236;5.712;2023-04-24T07:34:21;8.70;99.90
18260;DHT22;9256;52.236;5.712;2023-04-24T07:36:48;8.60;99.90
18260;DHT22;9256;52.236;5.712;2023-04-24T07:39:15;8.60;99.90
18260;DHT22;9256;52.236;5.712;2023-04-24T07:41:44;8.60;99.90
18260;DHT22;9256;52.236;5.712;2023-04-24T07:44:11;8.50;99.90
18260;DHT22;9256;52.236;5.712;2023-04-24T07:46:37;8.40;99.90
18260;DHT22;9256;52.236;5.712;2023-04-24T07:49:04;8.40;99.90
18260;DHT22;9256;52.236;5.712;2023-04-24T07:51:31;8.40;99.90
18260;DHT22;9256;52.236;5.712;2023-04-24T07:54:03;8.40;99.90
18260;DHT22;9256;52.236;5.712;2023-04-24T07:56:31;8.40;99.90
18260;DHT22;9256;52.236;5.712;2023-04-24T07:58:59;8.30;99.90
18260;DHT22;9256;52.236;5.712;2023-04-24T08:01:27;8.20;99.90
18260;DHT22;9256;52.236;5.712;2023-04-24T08:03:54;8.20;99.90
18260;DHT22;9256;52.236;5.712;2023-04-24T08:06:22;8.20;99.90
18260;DHT22;9256;52.236;5.712;2023-04-24T08:08:48;8.30;99.90
18260;DHT22;9256;52.236;5.712;2023-04-24T08:11:17;8.30;99.90
18260;DHT22;9256;52.236;5.712;2023-04-24T08:13:44;8.30;99.90
18260;DHT22;9256;52.236;5.712;2023-04-24T08:16:12;8.40;99.90
18260;DHT22;9256;52.236;5.712;2023-04-24T08:18:39;8.40;99.90
18260;DHT22;9256;52.236;5.712;2023-04-24T08:21:06;8.50;99.90
18260;DHT22;9256;52.236;5.712;2023-04-24T08:23:33;8.50;99.90
18260;DHT22;9256;52.236;5.712;2023-04-24T08:26:00;8.50;99.90
18260;DHT22;9256;52.236;5.712;2023-04-24T08:28:26;8.60;99.90
18260;DHT22;9256;52.236;5.712;2023-04-24T08:30:56;8.60;99.90
18260;DHT22;9256;52.236;5.712;2023-04-24T08:33:24;8.60;99.90
18260;DHT22;9256;52.236;5.712;2023-04-24T08:35:52;8.60;99.90
18260;DHT22;9256;52.236;5.712;2023-04-24T08:38:19;8.70;99.90
18260;DHT22;9256;52.236;5.712;2023-04-24T08:40:47;8.70;99.90
18260;DHT22;9256;52.236;5.712;2023-04-24T08:43:15;8.70;99.90
18260;DHT22;9256;52.236;5.712;2023-04-24T08:45:43;8.70;99.90
18260;DHT22;9256;52.236;5.712;2023-04-24T08:48:10;8.70;99.90
18260;DHT22;9256;52.236;5.712;2023-04-24T08:50:38;8.60;99.90
18260;DHT22;9256;52.236;5.712;2023-04-24T08:53:08;8.60;99.90
18260;DHT22;9256;52.236;5.712;2023-04-24T08:55:38;8.60;99.90
18260;DHT22;9256;52.236;5.712;2023-04-24T08:58:07;8.60;99.90
18260;DHT22;9256;52.236;5.712;2023-04-24T09:00:35;8.60;99.90
18260;DHT22;9256;52.236;5.712;2023-04-24T09:03:03;8.40;99.90
18260;DHT22;9256;52.236;5.712;2023-04-24T09:05:31;8.40;99.90
18260;DHT22;9256;52.236;5.712;2023-04-24T09:08:02;8.40;99.90
18260;DHT22;9256;52.236;5.712;2023-04-24T09:10:31;8.50;99.90
18260;DHT22;9256;52.236;5.712;2023-04-24T09:13:00;8.40;99.90
18260;DHT22;9256;52.236;5.712;2023-04-24T09:15:28;8.40;99.90
18260;DHT22;9256;52.236;5.712;2023-04-24T09:17:55;8.40;99.90
18260;DHT22;9256;52.236;5.712;2023-04-24T09:20:22;8.30;99.90
18260;DHT22;9256;52.236;5.712;2023-04-24T09:22:54;8.40;99.90
18260;DHT22;9256;52.236;5.712;2023-04-24T09:25:22;8.40;99.90
18260;DHT22;9256;52.236;5.712;2023-04-24T09:27:53;8.30;99.90
18260;DHT22;9256;52.236;5.712;2023-04-24T09:30:22;8.30;99.90
18260;DHT22;9256;52.236;5.712;2023-04-24T09:32:49;8.30;99.90
18260;DHT22;9256;52.236;5.712;2023-04-24T09:35:16;8.30;99.90
18260;DHT22;9256;52.236;5.712;2023-04-24T09:37:46;8.30;99.90
18260;DHT22;9256;52.236;5.712;2023-04-24T09:40:16;8.30;99.90
18260;DHT22;9256;52.236;5.712;2023-04-24T09:42:45;8.40;99.90
18260;DHT22;9256;52.236;5.712;2023-04-24T09:45:13;8.50;99.90
18260;DHT22;9256;52.236;5.712;2023-04-24T09:47:41;8.70;99.90
18260;DHT22;9256;52.236;5.712;2023-04-24T09:50:13;8.90;99.90
18260;DHT22;9256;52.236;5.712;2023-04-24T09:52:41;9.00;99.90
18260;DHT22;9256;52.236;5.712;2023-04-24T09:55:15;9.20;99.90
18260;DHT22;9256;52.236;5.712;2023-04-24T09:57:51;9.30;99.90
18260;DHT22;9256;52.236;5.712;2023-04-24T10:00:22;9.20;99.90
18260;DHT22;9256;52.236;5.712;2023-04-24T10:02:51;9.20;99.90
18260;DHT22;9256;52.236;5.712;2023-04-24T10:05:23;9.20;99.90
18260;DHT22;9256;52.236;5.712;2023-04-24T10:07:51;9.10;99.90
18260;DHT22;9256;52.236;5.712;2023-04-24T10:10:18;9.10;99.90
18260;DHT22;9256;52.236;5.712;2023-04-24T10:12:45;8.90;99.90
18260;DHT22;9256;52.236;5.712;2023-04-24T10:15:15;9.10;99.90
18260;DHT22;9256;52.236;5.712;2023-04-24T10:17:47;9.10;99.90
18260;DHT22;9256;52.236;5.712;2023-04-24T10:20:18;9.20;99.90
18260;DHT22;9256;52.236;5.712;2023-04-24T10:22:48;9.30;99.90
18260;DHT22;9256;52.236;5.712;2023-04-24T10:25:18;9.40;99.90
18260;DHT22;9256;52.236;5.712;2023-04-24T10:27:46;9.60;99.90
18260;DHT22;9256;52.236;5.712;2023-04-24T10:30:15;9.70;99.90
18260;DHT22;9256;52.236;5.712;2023-04-24T10:32:42;9.70;99.90
18260;DHT22;9256;52.236;5.712;2023-04-24T10:35:09;9.70;99.90
18260;DHT22;9256;52.236;5.712;2023-04-24T10:37:38;9.80;99.90
18260;DHT22;9256;52.236;5.712;2023-04-24T10:40:07;9.90;99.90
18260;DHT22;9256;52.236;5.712;2023-04-24T10:42:34;10.00;99.90
18260;DHT22;9256;52.236;5.712;2023-04-24T10:45:05;10.20;99.90
18260;DHT22;9256;52.236;5.712;2023-04-24T10:47:40;10.40;99.90
18260;DHT22;9256;52.236;5.712;2023-04-24T10:50:09;10.20;99.90
18260;DHT22;9256;52.236;5.712;2023-04-24T10:52:45;10.20;99.90
18260;DHT22;9256;52.236;5.712;2023-04-24T10:55:13;10.20;99.90
18260;DHT22;9256;52.236;5.712;2023-04-24T10:58:01;10.10;99.90
18260;DHT22;9256;52.236;5.712;2023-04-24T11:00:29;9.90;99.90
18260;DHT22;9256;52.236;5.712;2023-04-24T11:02:57;10.00;99.90
18260;DHT22;9256;52.236;5.712;2023-04-24T11:08:39;9.60;99.90
18260;DHT22;9256;52.236;5.712;2023-04-24T11:11:11;9.60;99.90
18260;DHT22;9256;52.236;5.712;2023-04-24T11:14:08;9.40;99.90
18260;DHT22;9256;52.236;5.712;2023-04-24T11:16:40;9.30;99.90
18260;DHT22;9256;52.236;5.712;2023-04-24T11:19:20;9.40;99.90
18260;DHT22;9256;52.236;5.712;2023-04-24T11:21:55;9.50;99.90
18260;DHT22;9256;52.236;5.712;2023-04-24T11:24:24;9.60;99.90
18260;DHT22;9256;52.236;5.712;2023-04-24T11:26:51;9.80;99.90
18260;DHT22;9256;52.236;5.712;2023-04-24T11:29:20;9.80;99.90
18260;DHT22;9256;52.236;5.712;2023-04-24T11:31:47;10.10;99.90
18260;DHT22;9256;52.236;5.712;2023-04-24T11:34:18;10.20;99.90
18260;DHT22;9256;52.236;5.712;2023-04-24T11:36:46;10.30;99.90
18260;DHT22;9256;52.236;5.712;2023-04-24T11:39:14;10.30;99.90
18260;DHT22;9256;52.236;5.712;2023-04-24T11:41:41;10.30;99.90
18260;DHT22;9256;52.236;5.712;2023-04-24T11:44:09;10.60;99.90
18260;DHT22;9256;52.236;5.712;2023-04-24T11:46:36;10.80;99.90
18260;DHT22;9256;52.236;5.712;2023-04-24T11:49:05;10.90;99.90
18260;DHT22;9256;52.236;5.712;2023-04-24T11:51:34;11.30;99.90
18260;DHT22;9256;52.236;5.712;2023-04-24T11:54:01;11.30;99.90
18260;DHT22;9256;52.236;5.712;2023-04-24T11:56:28;11.10;99.90
18260;DHT22;9256;52.236;5.712;2023-04-24T11:58:56;10.70;99.90
18260;DHT22;9256;52.236;5.712;2023-04-24T12:01:22;10.30;99.90
18260;DHT22;9256;52.236;5.712;2023-04-24T12:03:50;10.10;99.90
18260;DHT22;9256;52.236;5.712;2023-04-24T12:06:18;10.10;99.90
18260;DHT22;9256;52.236;5.712;2023-04-24T12:08:47;10.10;99.90
18260;DHT22;9256;52.236;5.712;2023-04-24T12:11:16;9.90;99.90
18260;DHT22;9256;52.236;5.712;2023-04-24T12:13:44;9.80;99.90
18260;DHT22;9256;52.236;5.712;2023-04-24T12:16:12;9.80;99.90
18260;DHT22;9256;52.236;5.712;2023-04-24T12:18:44;10.00;99.90
18260;DHT22;9256;52.236;5.712;2023-04-24T12:21:18;10.20;99.90
18260;DHT22;9256;52.236;5.712;2023-04-24T12:23:47;10.30;99.90
18260;DHT22;9256;52.236;5.712;2023-04-24T12:26:17;10.20;99.90
18260;DHT22;9256;52.236;5.712;2023-04-24T12:28:47;10.00;99.90
18260;DHT22;9256;52.236;5.712;2023-04-24T12:31:15;9.90;99.90
18260;DHT22;9256;52.236;5.712;2023-04-24T12:33:42;9.90;99.90
18260;DHT22;9256;52.236;5.712;2023-04-24T12:36:10;9.80;99.90
18260;DHT22;9256;52.236;5.712;2023-04-24T12:38:38;9.90;99.90
18260;DHT22;9256;52.236;5.712;2023-04-24T12:41:09;10.10;99.90
18260;DHT22;9256;52.236;5.712;2023-04-24T12:43:37;10.50;99.90
18260;DHT22;9256;52.236;5.712;2023-04-24T12:46:04;10.40;99.90
18260;DHT22;9256;52.236;5.712;2023-04-24T12:48:31;10.50;99.90
18260;DHT22;9256;52.236;5.712;2023-04-24T12:50:58;10.40;99.90
18260;DHT22;9256;52.236;5.712;2023-04-24T12:53:27;10.30;99.90
18260;DHT22;9256;52.236;5.712;2023-04-24T12:55:56;10.40;99.90
18260;DHT22;9256;52.236;5.712;2023-04-24T12:58:25;10.30;99.90
18260;DHT22;9256;52.236;5.712;2023-04-24T13:00:51;10.30;99.90
18260;DHT22;9256;52.236;5.712;2023-04-24T13:03:19;10.40;99.90
18260;DHT22;9256;52.236;5.712;2023-04-24T13:05:48;10.30;99.90
18260;DHT22;9256;52.236;5.712;2023-04-24T13:08:14;10.30;99.90
18260;DHT22;9256;52.236;5.712;2023-04-24T13:10:42;10.10;99.90
18260;DHT22;9256;52.236;5.712;2023-04-24T13:13:09;9.90;99.90
18260;DHT22;9256;52.236;5.712;2023-04-24T13:15:37;9.70;99.90
18260;DHT22;9256;52.236;5.712;2023-04-24T13:18:04;9.50;99.90
18260;DHT22;9256;52.236;5.712;2023-04-24T13:20:31;9.30;99.90
18260;DHT22;9256;52.236;5.712;2023-04-24T13:22:58;9.20;99.90
18260;DHT22;9256;52.236;5.712;2023-04-24T13:25:25;9.00;99.90
18260;DHT22;9256;52.236;5.712;2023-04-24T13:27:52;9.10;99.90
18260;DHT22;9256;52.236;5.712;2023-04-24T13:30:19;9.40;99.90
18260;DHT22;9256;52.236;5.712;2023-04-24T13:32:47;9.90;99.90
18260;DHT22;9256;52.236;5.712;2023-04-24T13:35:15;10.00;99.90
18260;DHT22;9256;52.236;5.712;2023-04-24T13:37:42;10.20;99.90
18260;DHT22;9256;52.236;5.712;2023-04-24T13:40:09;10.20;99.90
18260;DHT22;9256;52.236;5.712;2023-04-24T13:42:36;10.10;99.90
18260;DHT22;9256;52.236;5.712;2023-04-24T13:45:04;10.20;99.90
18260;DHT22;9256;52.236;5.712;2023-04-24T13:47:31;10.30;99.90
18260;DHT22;9256;52.236;5.712;2023-04-24T13:49:59;10.30;99.90
18260;DHT22;9256;52.236;5.712;2023-04-24T13:52:26;10.10;99.90
18260;DHT22;9256;52.236;5.712;2023-04-24T13:54:53;9.80;99.90
18260;DHT22;9256;52.236;5.712;2023-04-24T13:57:21;9.60;99.90
18260;DHT22;9256;52.236;5.712;2023-04-24T13:59:48;9.60;99.90
18260;DHT22;9256;52.236;5.712;2023-04-24T14:02:14;9.70;99.90
18260;DHT22;9256;52.236;5.712;2023-04-24T14:04:41;9.60;99.90
18260;DHT22;9256;52.236;5.712;2023-04-24T14:07:10;9.80;99.90
18260;DHT22;9256;52.236;5.712;2023-04-24T14:09:36;9.90;99.90
18260;DHT22;9256;52.236;5.712;2023-04-24T14:12:04;10.00;99.90
18260;DHT22;9256;52.236;5.712;2023-04-24T14:14:31;10.00;99.90
18260;DHT22;9256;52.236;5.712;2023-04-24T14:16:58;10.10;99.90
18260;DHT22;9256;52.236;5.712;2023-04-24T14:19:25;10.80;99.90
18260;DHT22;9256;52.236;5.712;2023-04-24T14:21:52;11.60;99.90
18260;DHT22;9256;52.236;5.712;2023-04-24T14:24:20;12.00;99.90
18260;DHT22;9256;52.236;5.712;2023-04-24T14:26:47;11.50;99.90
18260;DHT22;9256;52.236;5.712;2023-04-24T14:29:14;10.90;99.90
18260;DHT22;9256;52.236;5.712;2023-04-24T14:31:42;10.10;99.90
18260;DHT22;9256;52.236;5.712;2023-04-24T14:34:08;9.70;99.90
18260;DHT22;9256;52.236;5.712;2023-04-24T14:36:35;9.80;99.90
18260;DHT22;9256;52.236;5.712;2023-04-24T14:39:03;9.90;99.90
18260;DHT22;9256;52.236;5.712;2023-04-24T14:41:33;10.40;99.90
18260;DHT22;9256;52.236;5.712;2023-04-24T14:44:01;10.50;99.90
18260;DHT22;9256;52.236;5.712;2023-04-24T14:46:29;10.40;99.90
18260;DHT22;9256;52.236;5.712;2023-04-24T14:48:56;10.70;99.90
18260;DHT22;9256;52.236;5.712;2023-04-24T14:51:23;10.80;99.90
18260;DHT22;9256;52.236;5.712;2023-04-24T14:53:51;11.20;99.90
18260;DHT22;9256;52.236;5.712;2023-04-24T14:56:18;11.00;99.90
18260;DHT22;9256;52.236;5.712;2023-04-24T14:58:46;11.00;99.90
18260;DHT22;9256;52.236;5.712;2023-04-24T15:01:13;11.30;99.90
18260;DHT22;9256;52.236;5.712;2023-04-24T15:03:40;11.10;99.90
18260;DHT22;9256;52.236;5.712;2023-04-24T15:06:07;11.10;99.90
18260;DHT22;9256;52.236;5.712;2023-04-24T15:08:34;11.20;99.90
18260;DHT22;9256;52.236;5.712;2023-04-24T15:11:01;11.60;99.90
18260;DHT22;9256;52.236;5.712;2023-04-24T15:13:28;11.90;99.90
18260;DHT22;9256;52.236;5.712;2023-04-24T15:15:56;12.00;99.90
18260;DHT22;9256;52.236;5.712;2023-04-24T15:18:23;12.30;99.90
18260;DHT22;9256;52.236;5.712;2023-04-24T15:20:50;12.10;99.90
18260;DHT22;9256;52.236;5.712;2023-04-24T15:23:17;12.40;99.90
18260;DHT22;9256;52.236;5.712;2023-04-24T15:25:44;12.50;99.90
18260;DHT22;9256;52.236;5.712;2023-04-24T15:28:12;12.30;99.90
18260;DHT22;9256;52.236;5.712;2023-04-24T15:30:39;12.70;99.90
18260;DHT22;9256;52.236;5.712;2023-04-24T15:33:07;12.70;99.90
18260;DHT22;9256;52.236;5.712;2023-04-24T15:35:34;12.90;99.90
18260;DHT22;9256;52.236;5.712;2023-04-24T15:38:01;12.80;99.90
18260;DHT22;9256;52.236;5.712;2023-04-24T15:40:29;13.00;99.90
18260;DHT22;9256;52.236;5.712;2023-04-24T15:42:56;13.00;99.90
18260;DHT22;9256;52.236;5.712;2023-04-24T15:45:23;13.50;99.90
18260;DHT22;9256;52.236;5.712;2023-04-24T15:47:51;12.80;99.90
18260;DHT22;9256;52.236;5.712;2023-04-24T15:50:19;13.50;99.90
18260;DHT22;9256;52.236;5.712;2023-04-24T15:52:47;13.80;99.90
18260;DHT22;9256;52.236;5.712;2023-04-24T15:55:14;13.70;99.90
18260;DHT22;9256;52.236;5.712;2023-04-24T15:57:42;13.00;99.90
18260;DHT22;9256;52.236;5.712;2023-04-24T16:00:10;12.60;99.90
18260;DHT22;9256;52.236;5.712;2023-04-24T16:02:37;12.00;99.90
18260;DHT22;9256;52.236;5.712;2023-04-24T16:05:07;11.50;99.90